Time;durP1;ratioP1;P1;durP2;ratioP2;P2;SDS_P1;SDS_P2;PMS_P1;PMS_P2;Temp;Humidity;BMP_temperature;BMP_pressure;BME280_temperature;BME280_humidity;BME280_pressure;Samples;Min_cycle;Max_cycle;Signal;HPM_P1;HPM_P2
2022/03/21 00:01:16;;;;;;;8.23;4.53;;;;;;;;;;10365177;28;20029;-57
2022/03/21 00:06:17;;;;;;;6.38;4.53;;;;;;;;;;10364206;28;20026;-58
2022/03/21 00:11:18;;;;;;;7.22;4.40;;;;;;;;;;10364974;28;20034;-58
2022/03/21 00:16:20;;;;;;;5.90;4.72;;;;;;;;;;10364087;28;20201;-57
2022/03/21 00:21:21;;;;;;;7.55;4.60;;;;;;;;;;10362762;28;20049;-56
2022/03/21 00:26:21;;;;;;;6.30;4.30;;;;;;;;;;10370700;28;20081;-58
2022/03/21 00:31:22;;;;;;;4.35;3.83;;;;;;;;;;10371872;28;20037;-58
2022/03/21 00:36:23;;;;;;;6.55;4.28;;;;;;;;;;10371581;28;20037;-57
2022/03/21 00:41:25;;;;;;;4.70;4.03;;;;;;;;;;10371652;28;20033;-54
2022/03/21 00:46:26;;;;;;;6.10;4.03;;;;;;;;;;10371122;28;20189;-60
2022/03/21 00:51:26;;;;;;;5.78;4.30;;;;;;;;;;10363811;28;20484;-60
2022/03/21 00:56:27;;;;;;;5.63;4.13;;;;;;;;;;10370632;28;20038;-60
2022/03/21 01:01:27;;;;;;;8.43;4.88;;;;;;;;;;10363689;28;20065;-59
2022/03/21 01:06:29;;;;;;;7.85;4.60;;;;;;;;;;10368525;28;20125;-58
2022/03/21 01:11:29;;;;;;;6.65;3.70;;;;;;;;;;10369694;28;20029;-57
2022/03/21 01:16:30;;;;;;;5.70;4.10;;;;;;;;;;10369907;28;20038;-56
2022/03/21 01:21:31;;;;;;;5.50;3.80;;;;;;;;;;10369688;28;20033;-56
2022/03/21 01:26:32;;;;;;;5.68;4.15;;;;;;;;;;10369964;28;20038;-57
2022/03/21 01:31:33;;;;;;;6.25;3.80;;;;;;;;;;10367891;28;20034;-59
2022/03/21 01:36:33;;;;;;;6.72;3.95;;;;;;;;;;10369298;28;20370;-58
2022/03/21 01:41:34;;;;;;;8.80;4.32;;;;;;;;;;10368370;28;20025;-58
2022/03/21 01:46:37;;;;;;;5.45;3.83;;;;;;;;;;10368633;28;20041;-56
2022/03/21 01:51:39;;;;;;;5.72;3.70;;;;;;;;;;10368481;28;20116;-57
2022/03/21 01:56:43;;;;;;;5.70;4.03;;;;;;;;;;10363884;28;20073;-57
2022/03/21 02:01:44;;;;;;;8.40;3.72;;;;;;;;;;10357983;28;20117;-57
2022/03/21 02:06:45;;;;;;;5.13;3.70;;;;;;;;;;10368048;28;20038;-57
2022/03/21 02:11:46;;;;;;;5.63;3.78;;;;;;;;;;10361277;28;20354;-57
2022/03/21 02:16:46;;;;;;;4.57;3.55;;;;;;;;;;10367635;28;20026;-58
2022/03/21 02:22:34;;;;;;;6.07;3.45;;;;;;;;;;10366944;28;20034;-58
2022/03/21 02:27:37;;;;;;;5.78;3.65;;;;;;;;;;10364086;28;20033;-57
2022/03/21 02:32:37;;;;;;;6.35;3.58;;;;;;;;;;10349665;28;20101;-57
2022/03/21 02:37:40;;;;;;;4.18;3.55;;;;;;;;;;10364359;28;20387;-58
2022/03/21 02:42:41;;;;;;;4.68;3.75;;;;;;;;;;10369687;28;20034;-57
2022/03/21 02:47:42;;;;;;;4.65;3.58;;;;;;;;;;10366638;28;20042;-57
2022/03/21 02:52:45;;;;;;;4.80;3.28;;;;;;;;;;10366409;28;20033;-57
2022/03/21 02:57:45;;;;;;;3.50;3.20;;;;;;;;;;10348823;28;20045;-58
2022/03/21 03:02:46;;;;;;;5.35;3.85;;;;;;;;;;10361901;28;20441;-59
2022/03/21 03:07:47;;;;;;;4.63;3.63;;;;;;;;;;10357129;28;20041;-57
2022/03/21 03:12:47;;;;;;;4.35;3.00;;;;;;;;;;10365734;28;20112;-57
2022/03/21 03:17:48;;;;;;;5.10;3.38;;;;;;;;;;10358502;28;20036;-57
2022/03/21 03:22:49;;;;;;;4.40;3.40;;;;;;;;;;10365820;28;20029;-58
2022/03/21 03:27:49;;;;;;;6.60;3.05;;;;;;;;;;10363853;28;20047;-56
2022/03/21 03:32:51;;;;;;;3.25;2.90;;;;;;;;;;10364829;28;20018;-55
2022/03/21 03:37:51;;;;;;;7.68;3.45;;;;;;;;;;10365427;28;20042;-58
2022/03/21 03:42:52;;;;;;;3.28;2.70;;;;;;;;;;10364974;28;20021;-57
2022/03/21 03:47:53;;;;;;;3.50;3.10;;;;;;;;;;10364828;28;20040;-57
2022/03/21 03:52:53;;;;;;;3.60;3.15;;;;;;;;;;10365051;28;20469;-58
2022/03/21 03:57:54;;;;;;;4.25;3.25;;;;;;;;;;10372867;28;20046;-60
2022/03/21 04:08:13;;;;;;;;;;;;;;;;;;10373065;28;20088;-58
2022/03/21 04:13:14;;;;;;;5.20;2.97;;;;;;;;;;10372530;28;20004;-60
2022/03/21 04:18:14;;;;;;;4.90;3.17;;;;;;;;;;10365899;28;20455;-58
2022/03/21 04:23:15;;;;;;;3.92;2.90;;;;;;;;;;10365911;28;20073;-59
2022/03/21 04:28:16;;;;;;;4.72;3.17;;;;;;;;;;10371173;28;20029;-57
2022/03/21 04:33:17;;;;;;;3.75;2.78;;;;;;;;;;10371738;28;20497;-56
2022/03/21 04:38:18;;;;;;;3.55;2.88;;;;;;;;;;10371353;28;20107;-55
2022/03/21 04:43:19;;;;;;;3.50;2.80;;;;;;;;;;10371488;28;20409;-57
2022/03/21 04:48:20;;;;;;;3.60;2.78;;;;;;;;;;10353595;28;20037;-57
2022/03/21 04:53:21;;;;;;;3.65;2.72;;;;;;;;;;10371572;28;20038;-57
2022/03/21 04:58:21;;;;;;;3.50;3.15;;;;;;;;;;10370153;28;20053;-54
2022/03/21 05:03:22;;;;;;;3.05;2.75;;;;;;;;;;10370625;28;20120;-57
2022/03/21 05:08:23;;;;;;;3.33;2.53;;;;;;;;;;10369535;28;20332;-58
2022/03/21 05:13:23;;;;;;;3.50;3.03;;;;;;;;;;10370102;28;20293;-58
2022/03/21 05:18:24;;;;;;;3.92;3.00;;;;;;;;;;10369575;28;20026;-58
2022/03/21 05:45:02;;;;;;;2.65;2.30;;;;;;;;;;10347877;28;20559;-59
2022/03/21 05:50:03;;;;;;;2.90;2.60;;;;;;;;;;10368659;28;20048;-59
2022/03/21 05:55:04;;;;;;;3.50;2.47;;;;;;;;;;10368656;28;20088;-57
2022/03/21 06:00:21;;;;;;;4.25;2.53;;;;;;;;;;10368278;28;20030;-57
2022/03/21 06:05:22;;;;;;;3.80;2.70;;;;;;;;;;10368335;28;20038;-57
2022/03/21 06:10:23;;;;;;;4.05;2.92;;;;;;;;;;10368682;28;20034;-58
2022/03/21 06:15:24;;;;;;;2.55;2.35;;;;;;;;;;10362756;28;20026;-61
2022/03/21 06:20:25;;;;;;;3.17;2.40;;;;;;;;;;10366548;28;20034;-64
2022/03/21 06:25:25;;;;;;;2.88;2.53;;;;;;;;;;10368143;28;20032;-58
2022/03/21 06:30:26;;;;;;;3.28;2.55;;;;;;;;;;10368626;28;20038;-58
2022/03/21 06:35:26;;;;;;;2.72;2.40;;;;;;;;;;10361532;28;20030;-58
2022/03/21 06:40:27;;;;;;;3.03;2.47;;;;;;;;;;10359604;28;20046;-61
2022/03/21 06:45:28;;;;;;;3.17;2.30;;;;;;;;;;10359253;28;20389;-57
2022/03/21 06:50:28;;;;;;;3.72;2.33;;;;;;;;;;10366395;28;20069;-65
2022/03/21 06:55:30;;;;;;;6.40;2.72;;;;;;;;;;10366670;28;20048;-58
2022/03/21 07:00:31;;;;;;;11.52;2.90;;;;;;;;;;10363786;28;20033;-60
2022/03/21 07:05:32;;;;;;;7.32;3.28;;;;;;;;;;10366449;28;20053;-63
2022/03/21 07:10:33;;;;;;;14.07;3.30;;;;;;;;;;10363003;28;20116;-60
2022/03/21 07:15:34;;;;;;;10.15;2.97;;;;;;;;;;10365063;28;20473;-58
2022/03/21 07:20:35;;;;;;;5.43;3.30;;;;;;;;;;10356108;28;20034;-59
2022/03/21 07:25:36;;;;;;;9.48;4.05;;;;;;;;;;10361992;28;20064;-61
2022/03/21 07:30:37;;;;;;;6.18;3.45;;;;;;;;;;10361267;28;20045;-55
2022/03/21 07:35:37;;;;;;;14.82;4.13;;;;;;;;;;10361039;28;20079;-70
2022/03/21 07:40:38;;;;;;;10.95;4.03;;;;;;;;;;10353367;28;20030;-71
2022/03/21 07:50:58;;;;;;;8.30;4.55;;;;;;;;;;10355270;28;20277;-58
2022/03/21 07:56:00;;;;;;;9.27;4.63;;;;;;;;;;10364586;28;20278;-70
2022/03/21 08:01:00;;;;;;;13.77;4.90;;;;;;;;;;10364727;28;20029;-61
2022/03/21 08:06:02;;;;;;;11.13;4.70;;;;;;;;;;10362181;28;20082;-70
2022/03/21 08:11:04;;;;;;;14.18;5.18;;;;;;;;;;10363612;28;20038;-59
2022/03/21 08:16:05;;;;;;;9.35;5.07;;;;;;;;;;10362602;28;21042;-63
2022/03/21 08:21:06;;;;;;;11.52;5.10;;;;;;;;;;10362893;28;20034;-71
2022/03/21 08:26:06;;;;;;;6.82;4.70;;;;;;;;;;10363037;28;20033;-60
2022/03/21 08:31:07;;;;;;;9.48;4.63;;;;;;;;;;10362468;28;20030;-70
2022/03/21 08:36:09;;;;;;;6.97;4.57;;;;;;;;;;10362485;28;20049;-70
2022/03/21 08:41:11;;;;;;;12.85;4.88;;;;;;;;;;10366124;28;20339;-70
2022/03/21 08:46:12;;;;;;;8.73;4.70;;;;;;;;;;10369997;28;20140;-70
2022/03/21 08:51:13;;;;;;;8.20;5.30;;;;;;;;;;10362515;28;20050;-71
2022/03/21 08:56:14;;;;;;;9.20;5.50;;;;;;;;;;10361473;28;20084;-70
2022/03/21 09:01:14;;;;;;;8.85;4.60;;;;;;;;;;10368242;28;20026;-69
2022/03/21 09:06:15;;;;;;;7.63;5.22;;;;;;;;;;10368919;28;20057;-70
2022/03/21 09:11:19;;;;;;;9.32;5.53;;;;;;;;;;10369011;28;20033;-71
2022/03/21 09:16:19;;;;;;;10.43;5.40;;;;;;;;;;10367362;28;20477;-61
2022/03/21 09:21:20;;;;;;;6.65;4.93;;;;;;;;;;10370902;28;20034;-71
2022/03/21 09:26:21;;;;;;;7.40;4.80;;;;;;;;;;10370769;28;20117;-71
2022/03/21 09:31:22;;;;;;;10.20;5.50;;;;;;;;;;10368119;28;20041;-71
2022/03/21 09:36:23;;;;;;;8.25;4.93;;;;;;;;;;10367601;28;20096;-69
2022/03/21 09:41:28;;;;;;;11.57;4.40;;;;;;;;;;10368064;28;20022;-70
2022/03/21 09:46:29;;;;;;;8.27;4.97;;;;;;;;;;10366786;28;20045;-69
2022/03/21 09:51:30;;;;;;;9.13;4.82;;;;;;;;;;10367282;28;20485;-70
2022/03/21 09:56:31;;;;;;;6.15;4.40;;;;;;;;;;10360652;28;20042;-70
2022/03/21 10:01:33;;;;;;;11.40;4.72;;;;;;;;;;10350744;28;20493;-70
2022/03/21 10:06:37;;;;;;;10.02;4.95;;;;;;;;;;10366597;28;20040;-58
2022/03/21 10:11:50;;;;;;;6.70;4.50;;;;;;;;;;10363328;28;20088;-64
2022/03/21 10:16:56;;;;;;;6.00;4.10;;;;;;;;;;10366206;28;20045;-58
2022/03/21 10:22:08;;;;;;;6.60;4.30;;;;;;;;;;10366498;28;20075;-60
2022/03/21 10:27:37;;;;;;;7.00;4.30;;;;;;;;;;10365780;28;20389;-62
2022/03/21 10:32:50;;;;;;;6.72;4.60;;;;;;;;;;10367965;28;20045;-58
2022/03/21 10:37:56;;;;;;;18.35;4.22;;;;;;;;;;10361788;28;20187;-60
2022/03/21 10:43:09;;;;;;;10.55;4.68;;;;;;;;;;10368451;28;20025;-57
2022/03/21 10:48:30;;;;;;;7.90;4.22;;;;;;;;;;10366037;28;20650;-69
2022/03/21 10:53:40;;;;;;;11.77;5.40;;;;;;;;;;10360852;28;20037;-60
2022/03/21 10:58:47;;;;;;;7.45;4.63;;;;;;;;;;10361827;28;20140;-56
2022/03/21 11:03:51;;;;;;;8.02;4.60;;;;;;;;;;10347470;28;20059;-57
2022/03/21 11:08:54;;;;;;;6.40;4.40;;;;;;;;;;10362910;28;20037;-58
2022/03/21 11:13:55;;;;;;;8.38;4.85;;;;;;;;;;10364687;28;20106;-57
2022/03/21 11:18:57;;;;;;;10.00;5.05;;;;;;;;;;10361714;28;20053;-58
2022/03/21 11:23:57;;;;;;;6.72;4.38;;;;;;;;;;10346662;28;20069;-60
2022/03/21 11:29:35;;;;;;;8.70;4.30;;;;;;;;;;10363320;28;20165;-58
2022/03/21 11:35:13;;;;;;;7.10;4.30;;;;;;;;;;10362430;28;20570;-67
2022/03/21 11:40:28;;;;;;;5.83;3.93;;;;;;;;;;10358327;28;20375;-68
2022/03/21 11:45:34;;;;;;;7.82;4.40;;;;;;;;;;10360562;28;20389;-64
2022/03/21 11:50:35;;;;;;;9.60;4.88;;;;;;;;;;10363106;28;20379;-61
2022/03/21 11:55:44;;;;;;;10.45;4.65;;;;;;;;;;10365944;28;20038;-61
2022/03/21 12:01:28;;;;;;;6.70;4.47;;;;;;;;;;10365282;28;20041;-64
2022/03/21 12:06:32;;;;;;;6.60;4.57;;;;;;;;;;10351508;28;20258;-65
2022/03/21 12:11:39;;;;;;;7.55;4.70;;;;;;;;;;10364001;28;20449;-62
2022/03/21 12:16:39;;;;;;;9.18;4.65;;;;;;;;;;10364251;28;20057;-66
2022/03/21 12:21:40;;;;;;;5.78;5.00;;;;;;;;;;10372117;28;20394;-64
2022/03/21 12:26:52;;;;;;;8.27;4.55;;;;;;;;;;10366976;28;20111;-67
2022/03/21 12:32:26;;;;;;;6.57;4.65;;;;;;;;;;10374474;28;20041;-65
2022/03/21 12:37:47;;;;;;;7.75;4.63;;;;;;;;;;10371126;28;20197;-69
2022/03/21 12:42:48;;;;;;;8.00;4.32;;;;;;;;;;10369825;28;20448;-60
2022/03/21 12:47:49;;;;;;;9.13;4.72;;;;;;;;;;10362660;28;20033;-71
2022/03/21 12:53:00;;;;;;;6.13;4.53;;;;;;;;;;10370515;28;20038;-66
2022/03/21 12:58:15;;;;;;;7.25;5.00;;;;;;;;;;10370388;28;20050;-64
2022/03/21 13:03:17;;;;;;;6.65;4.72;;;;;;;;;;10362627;28;20053;-69
2022/03/21 13:13:42;;;;;;;6.15;4.50;;;;;;;;;;10371170;28;20037;-69
2022/03/21 13:18:42;;;;;;;5.57;4.10;;;;;;;;;;10363839;28;20038;-68
2022/03/21 13:23:44;;;;;;;5.75;4.40;;;;;;;;;;10370408;28;20034;-61
2022/03/21 13:28:45;;;;;;;7.85;4.55;;;;;;;;;;10366671;28;20030;-67
2022/03/21 13:33:58;;;;;;;5.78;4.10;;;;;;;;;;10367095;28;20042;-71
2022/03/21 13:39:23;;;;;;;4.90;3.75;;;;;;;;;;10367126;28;20033;-71
2022/03/21 13:44:39;;;;;;;6.47;4.32;;;;;;;;;;10369303;28;20033;-69
2022/03/21 13:50:06;;;;;;;8.95;4.22;;;;;;;;;;10359649;28;20062;-58
2022/03/21 13:55:08;;;;;;;10.15;4.28;;;;;;;;;;10369082;28;20052;-59
2022/03/21 14:00:10;;;;;;;5.18;4.13;;;;;;;;;;10368975;28;20489;-64
2022/03/21 14:05:21;;;;;;;5.55;3.97;;;;;;;;;;10367043;28;20183;-62
2022/03/21 14:10:26;;;;;;;5.13;3.70;;;;;;;;;;10364601;28;20045;-70
2022/03/21 14:15:28;;;;;;;5.72;3.88;;;;;;;;;;10362093;28;20036;-68
2022/03/21 14:20:28;;;;;;;5.68;3.72;;;;;;;;;;10355161;28;20490;-70
2022/03/21 14:30:49;;;;;;;5.75;4.47;;;;;;;;;;10366133;28;20026;-69
2022/03/21 14:35:50;;;;;;;8.15;5.30;;;;;;;;;;10367440;28;20033;-70
2022/03/21 14:40:51;;;;;;;5.47;4.30;;;;;;;;;;10365962;28;20037;-66
2022/03/21 14:45:56;;;;;;;7.90;4.53;;;;;;;;;;10366743;28;20034;-66
2022/03/21 14:50:59;;;;;;;8.57;4.65;;;;;;;;;;10365931;28;20417;-69
2022/03/21 14:56:01;;;;;;;6.47;3.83;;;;;;;;;;10362881;28;20038;-67
2022/03/21 15:01:07;;;;;;;5.40;4.40;;;;;;;;;;10362870;28;20489;-70
2022/03/21 15:06:08;;;;;;;8.02;4.57;;;;;;;;;;10362871;28;20038;-70
2022/03/21 15:11:11;;;;;;;7.93;4.15;;;;;;;;;;10365244;28;20093;-64
2022/03/21 15:16:13;;;;;;;6.25;4.63;;;;;;;;;;10366678;28;20276;-62
2022/03/21 15:21:14;;;;;;;7.80;4.47;;;;;;;;;;10358766;28;20037;-69
2022/03/21 15:26:15;;;;;;;7.97;4.80;;;;;;;;;;10360079;28;20034;-71
2022/03/21 15:31:16;;;;;;;7.07;4.47;;;;;;;;;;10365987;28;20030;-70
2022/03/21 15:41:41;;;;;;;;;;;;;;;;;;10365678;28;20018;-64
2022/03/21 15:46:42;;;;;;;8.00;4.18;;;;;;;;;;10362716;28;20122;-66
2022/03/21 15:51:43;;;;;;;6.55;4.90;;;;;;;;;;10368612;28;20277;-66
2022/03/21 15:56:44;;;;;;;6.20;5.00;;;;;;;;;;10372241;28;20240;-63
2022/03/21 16:01:45;;;;;;;9.85;4.53;;;;;;;;;;10366427;28;20575;-67
2022/03/21 16:06:46;;;;;;;7.47;4.57;;;;;;;;;;10372600;28;20022;-58
2022/03/21 16:11:46;;;;;;;9.13;4.75;;;;;;;;;;10354943;28;20125;-66
2022/03/21 16:16:47;;;;;;;8.68;4.80;;;;;;;;;;10373191;28;20034;-70
2022/03/21 16:21:48;;;;;;;7.18;4.72;;;;;;;;;;10370714;28;20120;-59
2022/03/21 16:26:50;;;;;;;11.98;4.65;;;;;;;;;;10359915;28;20029;-70
2022/03/21 16:31:51;;;;;;;5.78;4.18;;;;;;;;;;10366402;28;20033;-70
2022/03/21 16:36:51;;;;;;;6.57;4.30;;;;;;;;;;10371436;28;20030;-68
2022/03/21 16:41:53;;;;;;;6.82;4.57;;;;;;;;;;10372451;28;20049;-70
2022/03/21 16:46:53;;;;;;;11.05;4.32;;;;;;;;;;10372192;28;20029;-69
2022/03/21 16:51:55;;;;;;;6.75;4.25;;;;;;;;;;10371819;28;20034;-68
2022/03/21 16:56:58;;;;;;;5.97;4.07;;;;;;;;;;10371061;28;20100;-68
2022/03/21 17:01:58;;;;;;;12.30;4.80;;;;;;;;;;10369657;28;20042;-68
2022/03/21 17:07:01;;;;;;;7.00;4.13;;;;;;;;;;10368285;28;20785;-70
2022/03/21 17:12:10;;;;;;;7.85;4.45;;;;;;;;;;10371263;28;20036;-57
2022/03/21 17:17:12;;;;;;;8.55;4.38;;;;;;;;;;10370824;28;20434;-63
2022/03/21 17:27:32;;;;;;;8.20;4.18;;;;;;;;;;10358994;28;20244;-65
2022/03/21 17:32:34;;;;;;;11.93;4.32;;;;;;;;;;10369854;28;20189;-56
2022/03/21 17:37:34;;;;;;;14.10;4.30;;;;;;;;;;10362849;28;20123;-56
2022/03/21 17:42:35;;;;;;;20.88;4.35;;;;;;;;;;10368474;28;20034;-67
2022/03/21 17:47:36;;;;;;;20.02;4.50;;;;;;;;;;10345262;28;20026;-66
2022/03/21 17:52:37;;;;;;;28.10;5.30;;;;;;;;;;10366271;28;20060;-60
2022/03/21 17:57:37;;;;;;;14.80;4.60;;;;;;;;;;10359532;28;20042;-62
2022/03/21 18:02:41;;;;;;;13.80;3.90;;;;;;;;;;10350456;28;20034;-73
2022/03/21 18:07:41;;;;;;;17.00;4.07;;;;;;;;;;10357264;28;20307;-67
2022/03/21 18:12:42;;;;;;;10.15;4.00;;;;;;;;;;10356641;28;20433;-71
2022/03/21 18:17:42;;;;;;;18.10;5.00;;;;;;;;;;10357016;28;20029;-69
2022/03/21 18:22:43;;;;;;;21.48;4.78;;;;;;;;;;10349832;28;20041;-69
2022/03/21 18:27:44;;;;;;;14.23;5.32;;;;;;;;;;10333542;28;20087;-70
2022/03/21 18:32:44;;;;;;;14.30;4.05;;;;;;;;;;10355332;28;20153;-70
2022/03/21 18:37:45;;;;;;;20.70;5.22;;;;;;;;;;10350881;28;20049;-69
2022/03/21 18:42:46;;;;;;;9.50;4.47;;;;;;;;;;10362426;28;20072;-72
2022/03/21 18:47:47;;;;;;;17.95;4.45;;;;;;;;;;10355208;28;20489;-72
2022/03/21 18:52:51;;;;;;;9.02;3.95;;;;;;;;;;10362879;28;20386;-69
2022/03/21 18:57:55;;;;;;;11.52;4.20;;;;;;;;;;10359037;28;20057;-72
2022/03/21 19:02:56;;;;;;;17.25;4.03;;;;;;;;;;10361825;28;20061;-73
2022/03/21 19:07:57;;;;;;;7.82;4.70;;;;;;;;;;10362250;28;20030;-71
2022/03/21 19:12:57;;;;;;;7.00;4.30;;;;;;;;;;10358076;28;20053;-73
2022/03/21 19:17:59;;;;;;;9.73;3.97;;;;;;;;;;10354280;28;20541;-73
2022/03/21 19:23:01;;;;;;;10.38;4.43;;;;;;;;;;10361049;28;20050;-69
2022/03/21 19:28:02;;;;;;;15.90;4.38;;;;;;;;;;10356281;28;20029;-73
2022/03/21 19:33:03;;;;;;;14.93;5.13;;;;;;;;;;10357175;28;20184;-72
2022/03/21 19:38:04;;;;;;;11.32;3.72;;;;;;;;;;10360119;28;20036;-72
2022/03/21 19:43:05;;;;;;;10.88;4.00;;;;;;;;;;10360846;28;20063;-69
2022/03/21 19:48:07;;;;;;;11.50;4.38;;;;;;;;;;10355803;28;20034;-72
2022/03/21 19:53:08;;;;;;;8.30;4.45;;;;;;;;;;10359153;28;20398;-73
2022/03/21 19:58:09;;;;;;;11.15;4.47;;;;;;;;;;10350205;28;20038;-62
2022/03/21 20:03:09;;;;;;;12.13;4.20;;;;;;;;;;10361586;28;20030;-73
2022/03/21 20:08:11;;;;;;;9.40;4.28;;;;;;;;;;10359600;28;20069;-72
2022/03/21 20:13:13;;;;;;;10.85;4.50;;;;;;;;;;10360412;28;20278;-73
2022/03/21 20:18:14;;;;;;;10.18;4.28;;;;;;;;;;10358121;28;20505;-74
2022/03/21 20:23:14;;;;;;;13.45;5.13;;;;;;;;;;10357108;28;20022;-75
2022/03/21 20:28:15;;;;;;;9.43;4.68;;;;;;;;;;10358702;28;20320;-75
2022/03/21 20:33:16;;;;;;;12.57;4.30;;;;;;;;;;10359848;28;20026;-76
2022/03/21 20:38:16;;;;;;;8.23;4.45;;;;;;;;;;10368216;28;20128;-75
2022/03/21 20:43:17;;;;;;;11.05;4.38;;;;;;;;;;10369178;28;20079;-76
2022/03/21 20:48:18;;;;;;;6.68;4.32;;;;;;;;;;10362047;28;20037;-69
2022/03/21 20:53:18;;;;;;;12.52;4.68;;;;;;;;;;10360872;28;20022;-74
2022/03/21 20:58:19;;;;;;;11.52;4.28;;;;;;;;;;10358439;28;20034;-71
2022/03/21 21:03:19;;;;;;;10.52;4.65;;;;;;;;;;10353748;28;20092;-75
2022/03/21 21:08:20;;;;;;;13.95;4.72;;;;;;;;;;10360911;28;20334;-71
2022/03/21 21:13:26;;;;;;;19.30;5.75;;;;;;;;;;10363425;28;20033;-75
2022/03/21 21:18:27;;;;;;;25.02;6.28;;;;;;;;;;10364532;28;20060;-75
2022/03/21 21:23:28;;;;;;;22.27;5.90;;;;;;;;;;10365748;28;20028;-74
2022/03/21 21:28:29;;;;;;;22.67;5.63;;;;;;;;;;10358673;28;20116;-72
2022/03/21 21:33:30;;;;;;;28.73;6.70;;;;;;;;;;10357962;28;20037;-68
2022/03/21 21:38:31;;;;;;;13.55;5.72;;;;;;;;;;10359004;28;20112;-70
2022/03/21 21:43:32;;;;;;;16.77;6.40;;;;;;;;;;10358175;28;20030;-73
2022/03/21 21:48:33;;;;;;;17.52;6.03;;;;;;;;;;10342882;28;20069;-74
2022/03/21 21:53:34;;;;;;;18.60;6.75;;;;;;;;;;10362200;28;20037;-70
2022/03/21 21:58:34;;;;;;;12.40;6.45;;;;;;;;;;10360187;28;20125;-75
2022/03/21 22:03:35;;;;;;;18.52;7.10;;;;;;;;;;10353858;28;20048;-69
2022/03/21 22:08:36;;;;;;;15.63;6.60;;;;;;;;;;10356558;28;20434;-69
2022/03/21 22:13:36;;;;;;;18.70;6.70;;;;;;;;;;10363204;28;20037;-70
2022/03/21 22:18:37;;;;;;;12.63;6.20;;;;;;;;;;10364002;28;20026;-67
2022/03/21 22:23:38;;;;;;;14.60;6.88;;;;;;;;;;10363564;28;20030;-68
2022/03/21 22:28:39;;;;;;;17.98;7.32;;;;;;;;;;10358484;28;20025;-73
2022/03/21 22:33:39;;;;;;;15.10;7.15;;;;;;;;;;10360524;28;20461;-71
2022/03/21 22:38:40;;;;;;;20.80;8.27;;;;;;;;;;10362931;28;20034;-71
2022/03/21 22:49:00;;;;;;;17.20;8.80;;;;;;;;;;10361001;28;20037;-72
2022/03/21 22:54:01;;;;;;;24.23;8.23;;;;;;;;;;10363062;28;20064;-73
2022/03/21 22:59:04;;;;;;;16.90;7.80;;;;;;;;;;10362379;28;20116;-70
2022/03/21 23:04:09;;;;;;;20.23;8.00;;;;;;;;;;10362099;28;20030;-74
2022/03/21 23:09:10;;;;;;;17.77;7.78;;;;;;;;;;10354640;28;20393;-70
2022/03/21 23:14:11;;;;;;;22.38;7.78;;;;;;;;;;10350203;28;20026;-66
2022/03/21 23:19:12;;;;;;;18.80;8.07;;;;;;;;;;10357586;28;20421;-65
2022/03/21 23:24:13;;;;;;;22.50;8.35;;;;;;;;;;10361562;28;20451;-67
2022/03/21 23:29:13;;;;;;;20.98;7.80;;;;;;;;;;10360501;28;20079;-65
2022/03/21 23:34:19;;;;;;;16.33;7.55;;;;;;;;;;10360856;28;20045;-66
2022/03/21 23:39:19;;;;;;;19.85;7.63;;;;;;;;;;10359924;28;20492;-66
2022/03/21 23:44:20;;;;;;;13.70;7.80;;;;;;;;;;10358222;28;20033;-66
2022/03/21 23:49:21;;;;;;;16.85;7.38;;;;;;;;;;10355466;28;20207;-67
2022/03/21 23:54:22;;;;;;;13.48;7.53;;;;;;;;;;10358270;28;20088;-66
2022/03/21 23:59:23;;;;;;;15.93;7.60;;;;;;;;;;10356531;28;20502;-66
